sensor_id;sensor_type;location;lat;lon;timestamp;pressure;altitude;pressure_sealevel;temperature;humidity
66703;BME280;60933;46.398;-63.798;2023-01-30T00:00:34;102229.38;;;-4.56;66.54
66703;BME280;60933;46.398;-63.798;2023-01-30T00:03:01;102218.72;;;-4.52;66.12
66703;BME280;60933;46.398;-63.798;2023-01-30T00:05:28;102196.88;;;-4.52;66.13
66703;BME280;60933;46.398;-63.798;2023-01-30T00:07:54;102191.44;;;-4.45;65.64
66703;BME280;60933;46.398;-63.798;2023-01-30T00:10:20;102178.13;;;-4.42;66.17
66703;BME280;60933;46.398;-63.798;2023-01-30T00:12:46;102164.16;;;-4.37;65.89
66703;BME280;60933;46.398;-63.798;2023-01-30T00:15:12;102155.03;;;-4.35;66.05
66703;BME280;60933;46.398;-63.798;2023-01-30T00:17:38;102164.34;;;-4.34;66.13
66703;BME280;60933;46.398;-63.798;2023-01-30T00:23:11;102160.88;;;-4.21;66.26
66703;BME280;60933;46.398;-63.798;2023-01-30T00:25:37;102156.03;;;-4.18;66.41
66703;BME280;60933;46.398;-63.798;2023-01-30T00:28:03;102150.28;;;-4.15;66.08
66703;BME280;60933;46.398;-63.798;2023-01-30T00:30:29;102148.97;;;-4.08;66.00
66703;BME280;60933;46.398;-63.798;2023-01-30T00:32:57;102141.69;;;-4.04;66.76
66703;BME280;60933;46.398;-63.798;2023-01-30T00:35:23;102133.59;;;-3.98;66.88
66703;BME280;60933;46.398;-63.798;2023-01-30T00:37:55;102113.59;;;-3.95;66.82
66703;BME280;60933;46.398;-63.798;2023-01-30T00:40:21;102108.72;;;-3.92;66.70
66703;BME280;60933;46.398;-63.798;2023-01-30T00:42:47;102110.88;;;-3.83;67.10
66703;BME280;60933;46.398;-63.798;2023-01-30T00:45:32;102104.53;;;-3.76;67.63
66703;BME280;60933;46.398;-63.798;2023-01-30T00:48:16;102110.00;;;-3.69;67.89
66703;BME280;60933;46.398;-63.798;2023-01-30T00:50:42;102114.50;;;-3.63;67.46
66703;BME280;60933;46.398;-63.798;2023-01-30T00:53:12;102103.88;;;-3.57;68.85
66703;BME280;60933;46.398;-63.798;2023-01-30T00:55:39;102098.25;;;-3.53;69.86
66703;BME280;60933;46.398;-63.798;2023-01-30T00:58:06;102092.56;;;-3.49;69.61
66703;BME280;60933;46.398;-63.798;2023-01-30T01:00:32;102087.69;;;-3.46;69.93
66703;BME280;60933;46.398;-63.798;2023-01-30T01:02:58;102079.66;;;-3.39;70.20
66703;BME280;60933;46.398;-63.798;2023-01-30T01:05:24;102065.53;;;-3.35;70.17
66703;BME280;60933;46.398;-63.798;2023-01-30T01:07:50;102053.16;;;-3.30;70.35
66703;BME280;60933;46.398;-63.798;2023-01-30T01:10:16;102041.56;;;-3.27;70.64
66703;BME280;60933;46.398;-63.798;2023-01-30T01:12:42;102035.03;;;-3.23;70.92
66703;BME280;60933;46.398;-63.798;2023-01-30T01:15:13;102029.31;;;-3.19;70.49
66703;BME280;60933;46.398;-63.798;2023-01-30T01:17:40;102028.72;;;-3.15;70.73
66703;BME280;60933;46.398;-63.798;2023-01-30T01:20:08;102000.22;;;-3.12;69.94
66703;BME280;60933;46.398;-63.798;2023-01-30T01:22:34;101999.72;;;-3.05;69.75
66703;BME280;60933;46.398;-63.798;2023-01-30T01:25:00;101972.09;;;-3.02;70.73
66703;BME280;60933;46.398;-63.798;2023-01-30T01:27:26;101958.91;;;-2.96;70.01
66703;BME280;60933;46.398;-63.798;2023-01-30T01:29:52;101947.22;;;-2.94;70.80
66703;BME280;60933;46.398;-63.798;2023-01-30T01:32:19;101946.50;;;-2.92;71.46
66703;BME280;60933;46.398;-63.798;2023-01-30T01:34:46;101937.47;;;-2.87;70.85
66703;BME280;60933;46.398;-63.798;2023-01-30T01:37:12;101929.81;;;-2.88;70.00
66703;BME280;60933;46.398;-63.798;2023-01-30T01:39:38;101923.66;;;-2.77;70.91
66703;BME280;60933;46.398;-63.798;2023-01-30T01:42:34;101884.06;;;-2.76;71.31
66703;BME280;60933;46.398;-63.798;2023-01-30T01:48:05;101868.63;;;-2.64;70.43
66703;BME280;60933;46.398;-63.798;2023-01-30T01:50:48;101854.53;;;-2.59;71.53
66703;BME280;60933;46.398;-63.798;2023-01-30T01:53:18;101841.25;;;-2.55;71.27
66703;BME280;60933;46.398;-63.798;2023-01-30T01:55:48;101827.94;;;-2.51;71.22
66703;BME280;60933;46.398;-63.798;2023-01-30T02:01:14;101809.09;;;-2.40;71.85
66703;BME280;60933;46.398;-63.798;2023-01-30T02:03:44;101805.25;;;-2.31;71.92
66703;BME280;60933;46.398;-63.798;2023-01-30T02:06:13;101789.53;;;-2.24;72.19
66703;BME280;60933;46.398;-63.798;2023-01-30T02:08:46;101768.78;;;-2.17;72.75
66703;BME280;60933;46.398;-63.798;2023-01-30T02:11:56;101769.91;;;-2.10;72.61
66703;BME280;60933;46.398;-63.798;2023-01-30T02:14:03;101752.91;;;-2.13;72.83
66703;BME280;60933;46.398;-63.798;2023-01-30T02:16:31;101745.13;;;-1.98;72.64
66703;BME280;60933;46.398;-63.798;2023-01-30T02:19:01;101745.41;;;-1.92;72.93
66703;BME280;60933;46.398;-63.798;2023-01-30T02:22:28;101742.19;;;-1.87;73.06
66703;BME280;60933;46.398;-63.798;2023-01-30T02:25:06;101723.06;;;-1.81;72.00
66703;BME280;60933;46.398;-63.798;2023-01-30T02:38:00;101662.44;;;-1.56;74.08
66703;BME280;60933;46.398;-63.798;2023-01-30T02:45:59;101657.13;;;-1.41;74.42
66703;BME280;60933;46.398;-63.798;2023-01-30T02:48:45;101641.22;;;-1.37;74.28
66703;BME280;60933;46.398;-63.798;2023-01-30T02:51:18;101644.00;;;-1.31;74.79
66703;BME280;60933;46.398;-63.798;2023-01-30T02:53:48;101627.25;;;-1.28;75.22
66703;BME280;60933;46.398;-63.798;2023-01-30T02:56:15;101635.88;;;-1.22;76.16
66703;BME280;60933;46.398;-63.798;2023-01-30T02:58:47;101643.84;;;-1.13;76.35
66703;BME280;60933;46.398;-63.798;2023-01-30T03:01:24;101629.84;;;-1.03;76.63
66703;BME280;60933;46.398;-63.798;2023-01-30T03:15:16;101590.59;;;-0.66;76.93
66703;BME280;60933;46.398;-63.798;2023-01-30T03:17:45;101579.00;;;-0.59;77.83
66703;BME280;60933;46.398;-63.798;2023-01-30T03:20:14;101595.28;;;-0.53;77.02
66703;BME280;60933;46.398;-63.798;2023-01-30T03:22:41;101596.31;;;-0.47;78.65
66703;BME280;60933;46.398;-63.798;2023-01-30T03:25:08;101588.91;;;-0.41;78.81
66703;BME280;60933;46.398;-63.798;2023-01-30T03:27:37;101593.22;;;-0.39;79.24
66703;BME280;60933;46.398;-63.798;2023-01-30T03:30:04;101581.47;;;-0.37;79.80
66703;BME280;60933;46.398;-63.798;2023-01-30T03:32:30;101591.69;;;-0.34;80.15
66703;BME280;60933;46.398;-63.798;2023-01-30T03:34:56;101576.56;;;-0.32;80.76
66703;BME280;60933;46.398;-63.798;2023-01-30T03:37:22;101555.44;;;-0.31;80.68
66703;BME280;60933;46.398;-63.798;2023-01-30T03:39:48;101558.06;;;-0.28;81.06
66703;BME280;60933;46.398;-63.798;2023-01-30T03:42:14;101549.34;;;-0.36;81.47
66703;BME280;60933;46.398;-63.798;2023-01-30T03:44:40;101552.03;;;-0.32;82.12
66703;BME280;60933;46.398;-63.798;2023-01-30T03:47:06;101540.09;;;-0.34;80.27
66703;BME280;60933;46.398;-63.798;2023-01-30T03:49:32;101552.69;;;-0.37;79.71
66703;BME280;60933;46.398;-63.798;2023-01-30T03:51:57;101537.72;;;-0.29;80.61
66703;BME280;60933;46.398;-63.798;2023-01-30T03:54:23;101528.34;;;-0.32;81.08
66703;BME280;60933;46.398;-63.798;2023-01-30T03:56:49;101538.53;;;-0.30;81.47
66703;BME280;60933;46.398;-63.798;2023-01-30T03:59:15;101533.47;;;-0.30;82.01
66703;BME280;60933;46.398;-63.798;2023-01-30T04:01:41;101529.16;;;-0.33;81.41
66703;BME280;60933;46.398;-63.798;2023-01-30T04:04:07;101519.09;;;-0.30;82.31
66703;BME280;60933;46.398;-63.798;2023-01-30T04:06:33;101509.78;;;-0.31;82.32
66703;BME280;60933;46.398;-63.798;2023-01-30T04:08:59;101507.97;;;-0.34;83.09
66703;BME280;60933;46.398;-63.798;2023-01-30T04:11:25;101507.28;;;-0.29;82.86
66703;BME280;60933;46.398;-63.798;2023-01-30T04:13:51;101489.56;;;-0.28;83.74
66703;BME280;60933;46.398;-63.798;2023-01-30T04:16:18;101482.81;;;-0.27;84.19
66703;BME280;60933;46.398;-63.798;2023-01-30T04:18:44;101476.91;;;-0.26;83.64
66703;BME280;60933;46.398;-63.798;2023-01-30T04:21:11;101462.59;;;-0.24;84.68
66703;BME280;60933;46.398;-63.798;2023-01-30T04:23:38;101453.41;;;-0.21;83.89
66703;BME280;60933;46.398;-63.798;2023-01-30T04:26:04;101434.13;;;-0.15;83.92
66703;BME280;60933;46.398;-63.798;2023-01-30T04:28:31;101429.22;;;-0.09;84.40
66703;BME280;60933;46.398;-63.798;2023-01-30T04:30:57;101423.41;;;-0.05;83.97
66703;BME280;60933;46.398;-63.798;2023-01-30T04:33:23;101415.94;;;-0.01;83.37
66703;BME280;60933;46.398;-63.798;2023-01-30T04:35:57;101415.22;;;0.04;83.07
66703;BME280;60933;46.398;-63.798;2023-01-30T04:38:24;101401.84;;;0.09;83.90
66703;BME280;60933;46.398;-63.798;2023-01-30T04:40:52;101401.06;;;0.12;84.13
66703;BME280;60933;46.398;-63.798;2023-01-30T04:43:20;101393.56;;;0.17;83.90
66703;BME280;60933;46.398;-63.798;2023-01-30T04:45:48;101385.28;;;0.22;85.12
66703;BME280;60933;46.398;-63.798;2023-01-30T04:48:15;101360.84;;;0.27;84.60
66703;BME280;60933;46.398;-63.798;2023-01-30T04:50:42;101349.94;;;0.30;85.48
66703;BME280;60933;46.398;-63.798;2023-01-30T04:53:10;101358.53;;;0.35;85.25
66703;BME280;60933;46.398;-63.798;2023-01-30T04:55:36;101350.16;;;0.38;84.61
66703;BME280;60933;46.398;-63.798;2023-01-30T04:58:02;101354.44;;;0.40;84.49
66703;BME280;60933;46.398;-63.798;2023-01-30T05:00:28;101343.63;;;0.47;85.36
66703;BME280;60933;46.398;-63.798;2023-01-30T05:02:54;101347.06;;;0.50;85.97
66703;BME280;60933;46.398;-63.798;2023-01-30T05:05:24;101343.72;;;0.51;86.29
66703;BME280;60933;46.398;-63.798;2023-01-30T05:07:50;101329.31;;;0.51;85.26
66703;BME280;60933;46.398;-63.798;2023-01-30T05:10:17;101309.94;;;0.55;85.90
66703;BME280;60933;46.398;-63.798;2023-01-30T05:12:43;101312.47;;;0.55;85.66
66703;BME280;60933;46.398;-63.798;2023-01-30T05:15:10;101316.84;;;0.59;85.77
66703;BME280;60933;46.398;-63.798;2023-01-30T05:17:37;101311.81;;;0.62;85.74
66703;BME280;60933;46.398;-63.798;2023-01-30T05:20:04;101310.06;;;0.59;86.55
66703;BME280;60933;46.398;-63.798;2023-01-30T05:22:31;101315.25;;;0.64;86.00
66703;BME280;60933;46.398;-63.798;2023-01-30T05:24:56;101300.03;;;0.66;85.85
66703;BME280;60933;46.398;-63.798;2023-01-30T05:27:22;101299.22;;;0.67;85.87
66703;BME280;60933;46.398;-63.798;2023-01-30T05:29:49;101284.72;;;0.61;85.36
66703;BME280;60933;46.398;-63.798;2023-01-30T05:32:15;101287.44;;;0.70;85.09
66703;BME280;60933;46.398;-63.798;2023-01-30T05:34:41;101289.13;;;0.68;85.64
66703;BME280;60933;46.398;-63.798;2023-01-30T05:37:08;101291.72;;;0.71;85.48
66703;BME280;60933;46.398;-63.798;2023-01-30T05:39:35;101290.91;;;0.72;84.95
66703;BME280;60933;46.398;-63.798;2023-01-30T05:42:01;101279.91;;;0.73;86.13
66703;BME280;60933;46.398;-63.798;2023-01-30T05:44:27;101273.94;;;0.73;86.28
66703;BME280;60933;46.398;-63.798;2023-01-30T05:46:52;101274.00;;;0.74;86.45
66703;BME280;60933;46.398;-63.798;2023-01-30T05:49:18;101272.25;;;0.72;85.97
66703;BME280;60933;46.398;-63.798;2023-01-30T05:51:45;101276.47;;;0.71;85.74
66703;BME280;60933;46.398;-63.798;2023-01-30T05:54:11;101263.78;;;0.73;86.21
66703;BME280;60933;46.398;-63.798;2023-01-30T05:56:37;101264.63;;;0.72;86.18
66703;BME280;60933;46.398;-63.798;2023-01-30T05:59:03;101259.56;;;0.72;84.26
66703;BME280;60933;46.398;-63.798;2023-01-30T06:01:29;101257.03;;;0.73;85.04
66703;BME280;60933;46.398;-63.798;2023-01-30T06:03:57;101271.59;;;0.79;85.24
66703;BME280;60933;46.398;-63.798;2023-01-30T06:06:24;101271.59;;;0.79;85.75
66703;BME280;60933;46.398;-63.798;2023-01-30T06:08:54;101266.44;;;0.77;86.17
66703;BME280;60933;46.398;-63.798;2023-01-30T06:11:21;101271.53;;;0.77;85.78
66703;BME280;60933;46.398;-63.798;2023-01-30T06:13:47;101258.78;;;0.76;85.92
66703;BME280;60933;46.398;-63.798;2023-01-30T06:16:15;101258.78;;;0.76;86.33
66703;BME280;60933;46.398;-63.798;2023-01-30T06:18:41;101267.31;;;0.78;86.26
66703;BME280;60933;46.398;-63.798;2023-01-30T06:21:08;101252.88;;;0.77;86.56
66703;BME280;60933;46.398;-63.798;2023-01-30T06:23:34;101252.75;;;0.71;87.43
66703;BME280;60933;46.398;-63.798;2023-01-30T06:26:00;101256.28;;;0.77;87.18
66703;BME280;60933;46.398;-63.798;2023-01-30T06:28:27;101250.34;;;0.77;87.50
66703;BME280;60933;46.398;-63.798;2023-01-30T06:30:53;101253.72;;;0.76;87.84
66703;BME280;60933;46.398;-63.798;2023-01-30T06:33:19;101249.50;;;0.76;87.27
66703;BME280;60933;46.398;-63.798;2023-01-30T06:35:48;101244.41;;;0.76;87.33
66703;BME280;60933;46.398;-63.798;2023-01-30T06:38:15;101233.38;;;0.76;87.16
66703;BME280;60933;46.398;-63.798;2023-01-30T06:40:48;101227.44;;;0.75;87.68
66703;BME280;60933;46.398;-63.798;2023-01-30T06:43:18;101234.16;;;0.73;86.64
66703;BME280;60933;46.398;-63.798;2023-01-30T06:45:44;101234.25;;;0.76;87.80
66703;BME280;60933;46.398;-63.798;2023-01-30T06:48:10;101244.44;;;0.78;88.16
66703;BME280;60933;46.398;-63.798;2023-01-30T06:50:36;101258.81;;;0.77;87.41
66703;BME280;60933;46.398;-63.798;2023-01-30T06:53:02;101252.06;;;0.78;87.77
66703;BME280;60933;46.398;-63.798;2023-01-30T06:55:29;101238.38;;;0.73;87.60
66703;BME280;60933;46.398;-63.798;2023-01-30T06:58:07;101243.53;;;0.76;87.66
66703;BME280;60933;46.398;-63.798;2023-01-30T07:00:35;101251.28;;;0.81;88.01
66703;BME280;60933;46.398;-63.798;2023-01-30T07:03:04;101243.69;;;0.82;87.62
66703;BME280;60933;46.398;-63.798;2023-01-30T07:05:30;101237.06;;;0.89;87.92
66703;BME280;60933;46.398;-63.798;2023-01-30T07:07:56;101238.06;;;0.96;87.75
66703;BME280;60933;46.398;-63.798;2023-01-30T07:10:22;101245.09;;;1.07;86.94
66703;BME280;60933;46.398;-63.798;2023-01-30T07:12:50;101241.94;;;1.18;86.28
66703;BME280;60933;46.398;-63.798;2023-01-30T07:15:17;101242.94;;;1.24;86.62
66703;BME280;60933;46.398;-63.798;2023-01-30T07:17:43;101245.50;;;1.26;84.96
66703;BME280;60933;46.398;-63.798;2023-01-30T07:20:09;101240.53;;;1.31;85.08
66703;BME280;60933;46.398;-63.798;2023-01-30T07:22:36;101244.78;;;1.32;85.12
66703;BME280;60933;46.398;-63.798;2023-01-30T07:25:02;101242.22;;;1.30;85.41
66703;BME280;60933;46.398;-63.798;2023-01-30T07:27:28;101242.13;;;1.25;84.80
66703;BME280;60933;46.398;-63.798;2023-01-30T07:29:54;101243.78;;;1.25;84.95
66703;BME280;60933;46.398;-63.798;2023-01-30T07:32:20;101249.75;;;1.25;84.93
66703;BME280;60933;46.398;-63.798;2023-01-30T07:34:47;101251.41;;;1.25;85.30
66703;BME280;60933;46.398;-63.798;2023-01-30T07:37:13;101254.78;;;1.24;85.04
66703;BME280;60933;46.398;-63.798;2023-01-30T07:39:40;101237.69;;;1.17;84.73
66703;BME280;60933;46.398;-63.798;2023-01-30T07:42:06;101235.94;;;1.16;84.34
66703;BME280;60933;46.398;-63.798;2023-01-30T07:44:33;101239.28;;;1.13;83.20
66703;BME280;60933;46.398;-63.798;2023-01-30T07:46:59;101236.81;;;1.15;83.38
66703;BME280;60933;46.398;-63.798;2023-01-30T07:49:25;101221.38;;;1.08;82.13
66703;BME280;60933;46.398;-63.798;2023-01-30T07:51:51;101225.84;;;1.17;80.68
66703;BME280;60933;46.398;-63.798;2023-01-30T07:54:18;101239.47;;;1.21;81.14
66703;BME280;60933;46.398;-63.798;2023-01-30T07:56:44;101236.84;;;1.18;82.69
66703;BME280;60933;46.398;-63.798;2023-01-30T07:59:10;101232.66;;;1.18;81.97
66703;BME280;60933;46.398;-63.798;2023-01-30T08:01:36;101231.72;;;1.15;82.44
66703;BME280;60933;46.398;-63.798;2023-01-30T08:04:02;101244.47;;;1.16;82.89
66703;BME280;60933;46.398;-63.798;2023-01-30T08:06:28;101245.94;;;1.06;83.81
66703;BME280;60933;46.398;-63.798;2023-01-30T08:08:55;101245.75;;;0.99;84.75
66703;BME280;60933;46.398;-63.798;2023-01-30T08:11:21;101248.13;;;0.91;85.30
66703;BME280;60933;46.398;-63.798;2023-01-30T08:13:46;101251.38;;;0.84;85.33
66703;BME280;60933;46.398;-63.798;2023-01-30T08:16:13;101258.78;;;0.76;85.57
66703;BME280;60933;46.398;-63.798;2023-01-30T08:18:39;101257.00;;;0.72;85.56
66703;BME280;60933;46.398;-63.798;2023-01-30T08:21:06;101261.91;;;0.66;85.66
66703;BME280;60933;46.398;-63.798;2023-01-30T08:23:33;101263.50;;;0.60;85.95
66703;BME280;60933;46.398;-63.798;2023-01-30T08:26:01;101277.91;;;0.60;85.88
66703;BME280;60933;46.398;-63.798;2023-01-30T08:28:28;101275.28;;;0.57;86.49
66703;BME280;60933;46.398;-63.798;2023-01-30T08:30:54;101279.44;;;0.55;87.18
66703;BME280;60933;46.398;-63.798;2023-01-30T08:33:21;101293.75;;;0.51;87.10
66703;BME280;60933;46.398;-63.798;2023-01-30T08:35:48;101294.69;;;0.55;87.97
66703;BME280;60933;46.398;-63.798;2023-01-30T08:38:14;101291.34;;;0.56;88.13
66703;BME280;60933;46.398;-63.798;2023-01-30T08:40:40;101287.03;;;0.53;88.10
66703;BME280;60933;46.398;-63.798;2023-01-30T08:43:06;101310.13;;;0.61;88.57
66703;BME280;60933;46.398;-63.798;2023-01-30T08:45:33;101320.44;;;0.67;88.86
66703;BME280;60933;46.398;-63.798;2023-01-30T08:48:03;101335.06;;;0.77;89.62
66703;BME280;60933;46.398;-63.798;2023-01-30T08:50:30;101346.22;;;0.83;89.90
66703;BME280;60933;46.398;-63.798;2023-01-30T08:52:57;101354.91;;;0.91;90.61
66703;BME280;60933;46.398;-63.798;2023-01-30T08:55:29;101372.16;;;1.03;91.19
66703;BME280;60933;46.398;-63.798;2023-01-30T08:57:55;101385.13;;;1.14;91.38
66703;BME280;60933;46.398;-63.798;2023-01-30T09:00:22;101398.53;;;1.08;91.56
66703;BME280;60933;46.398;-63.798;2023-01-30T09:02:52;101420.75;;;0.82;90.95
66703;BME280;60933;46.398;-63.798;2023-01-30T09:05:18;101418.47;;;0.59;90.49
66703;BME280;60933;46.398;-63.798;2023-01-30T09:07:44;101428.88;;;0.38;90.09
66703;BME280;60933;46.398;-63.798;2023-01-30T09:10:10;101427.41;;;0.15;89.89
66703;BME280;60933;46.398;-63.798;2023-01-30T09:12:36;101429.59;;;0.03;90.05
66703;BME280;60933;46.398;-63.798;2023-01-30T09:15:02;101436.91;;;-0.06;89.72
66703;BME280;60933;46.398;-63.798;2023-01-30T09:17:28;101449.25;;;-0.19;88.99
66703;BME280;60933;46.398;-63.798;2023-01-30T09:19:54;101438.78;;;-0.29;89.35
66703;BME280;60933;46.398;-63.798;2023-01-30T09:22:20;101430.69;;;-0.45;88.66
66703;BME280;60933;46.398;-63.798;2023-01-30T09:24:45;101444.84;;;-0.52;89.41
66703;BME280;60933;46.398;-63.798;2023-01-30T09:27:12;101443.69;;;-0.61;88.59
66703;BME280;60933;46.398;-63.798;2023-01-30T09:29:38;101467.06;;;-0.70;88.67
66703;BME280;60933;46.398;-63.798;2023-01-30T09:32:04;101461.88;;;-0.73;88.53
66703;BME280;60933;46.398;-63.798;2023-01-30T09:34:29;101470.09;;;-0.81;88.39
66703;BME280;60933;46.398;-63.798;2023-01-30T09:36:59;101492.56;;;-0.91;88.54
66703;BME280;60933;46.398;-63.798;2023-01-30T09:39:26;101482.22;;;-0.98;88.07
66703;BME280;60933;46.398;-63.798;2023-01-30T09:42:25;101465.66;;;-1.12;87.22
66703;BME280;60933;46.398;-63.798;2023-01-30T09:55:51;101482.16;;;-1.48;86.08
66703;BME280;60933;46.398;-63.798;2023-01-30T09:58:20;101475.97;;;-1.54;85.97
66703;BME280;60933;46.398;-63.798;2023-01-30T10:00:49;101489.28;;;-1.60;85.60
66703;BME280;60933;46.398;-63.798;2023-01-30T10:03:19;101483.88;;;-1.69;85.35
66703;BME280;60933;46.398;-63.798;2023-01-30T10:05:53;101494.41;;;-1.81;84.45
66703;BME280;60933;46.398;-63.798;2023-01-30T10:14:15;101509.94;;;-2.16;82.45
66703;BME280;60933;46.398;-63.798;2023-01-30T10:22:26;101571.94;;;-2.47;80.50
66703;BME280;60933;46.398;-63.798;2023-01-30T10:27:46;101577.72;;;-2.69;80.06
66703;BME280;60933;46.398;-63.798;2023-01-30T10:30:15;101581.38;;;-2.82;80.35
66703;BME280;60933;46.398;-63.798;2023-01-30T10:32:57;101598.81;;;-2.88;80.14
66703;BME280;60933;46.398;-63.798;2023-01-30T10:35:31;101612.91;;;-2.93;80.34
66703;BME280;60933;46.398;-63.798;2023-01-30T10:38:07;101616.00;;;-2.99;80.99
66703;BME280;60933;46.398;-63.798;2023-01-30T10:40:41;101613.00;;;-3.10;80.92
66703;BME280;60933;46.398;-63.798;2023-01-30T10:43:23;101623.25;;;-3.07;80.56
66703;BME280;60933;46.398;-63.798;2023-01-30T10:46:09;101643.03;;;-3.16;79.94
66703;BME280;60933;46.398;-63.798;2023-01-30T10:49:05;101656.19;;;-3.23;80.12
66703;BME280;60933;46.398;-63.798;2023-01-30T10:52:00;101650.81;;;-3.29;80.47
66703;BME280;60933;46.398;-63.798;2023-01-30T10:59:54;101664.13;;;-3.52;80.27
66703;BME280;60933;46.398;-63.798;2023-01-30T11:05:27;101688.63;;;-3.67;80.76
66703;BME280;60933;46.398;-63.798;2023-01-30T11:07:55;101690.47;;;-3.81;80.63
66703;BME280;60933;46.398;-63.798;2023-01-30T11:10:24;101684.03;;;-3.92;80.89
66703;BME280;60933;46.398;-63.798;2023-01-30T11:13:26;101698.88;;;-3.99;82.05
66703;BME280;60933;46.398;-63.798;2023-01-30T11:15:59;101688.38;;;-4.06;82.02
66703;BME280;60933;46.398;-63.798;2023-01-30T11:18:28;101703.69;;;-4.03;82.02
66703;BME280;60933;46.398;-63.798;2023-01-30T11:21:12;101701.84;;;-4.06;81.51
66703;BME280;60933;46.398;-63.798;2023-01-30T11:23:42;101690.53;;;-4.14;82.13
66703;BME280;60933;46.398;-63.798;2023-01-30T11:26:28;101691.78;;;-4.22;82.05
66703;BME280;60933;46.398;-63.798;2023-01-30T11:28:55;101711.97;;;-4.22;81.57
66703;BME280;60933;46.398;-63.798;2023-01-30T11:31:25;101725.13;;;-4.28;81.96
66703;BME280;60933;46.398;-63.798;2023-01-30T11:34:03;101726.44;;;-4.35;82.08
66703;BME280;60933;46.398;-63.798;2023-01-30T11:36:34;101744.63;;;-4.40;82.59
66703;BME280;60933;46.398;-63.798;2023-01-30T11:41:35;101775.59;;;-4.43;82.42
66703;BME280;60933;46.398;-63.798;2023-01-30T11:44:03;101787.47;;;-4.40;83.01
66703;BME280;60933;46.398;-63.798;2023-01-30T11:46:33;101794.81;;;-4.45;82.77
66703;BME280;60933;46.398;-63.798;2023-01-30T11:49:14;101821.84;;;-4.42;83.31
66703;BME280;60933;46.398;-63.798;2023-01-30T11:51:45;101817.34;;;-4.48;83.03
66703;BME280;60933;46.398;-63.798;2023-01-30T11:54:28;101830.72;;;-4.49;83.34
66703;BME280;60933;46.398;-63.798;2023-01-30T11:56:57;101841.75;;;-4.47;83.47
66703;BME280;60933;46.398;-63.798;2023-01-30T11:59:29;101832.47;;;-4.48;83.78
66703;BME280;60933;46.398;-63.798;2023-01-30T12:02:23;101847.41;;;-4.51;83.90
66703;BME280;60933;46.398;-63.798;2023-01-30T12:05:35;101837.31;;;-4.51;83.69
66703;BME280;60933;46.398;-63.798;2023-01-30T12:07:43;101828.03;;;-4.52;84.34
66703;BME280;60933;46.398;-63.798;2023-01-30T12:10:40;101850.81;;;-4.51;84.28
66703;BME280;60933;46.398;-63.798;2023-01-30T12:13:35;101860.81;;;-4.52;84.65
66703;BME280;60933;46.398;-63.798;2023-01-30T12:19:00;101866.69;;;-4.52;85.15
66703;BME280;60933;46.398;-63.798;2023-01-30T12:21:51;101875.31;;;-4.48;84.71
66703;BME280;60933;46.398;-63.798;2023-01-30T12:24:24;101861.75;;;-4.50;85.09
66703;BME280;60933;46.398;-63.798;2023-01-30T12:27:36;101867.91;;;-4.45;84.40
66703;BME280;60933;46.398;-63.798;2023-01-30T12:32:26;101876.34;;;-4.45;85.19
66703;BME280;60933;46.398;-63.798;2023-01-30T12:34:52;101871.13;;;-4.48;85.02
66703;BME280;60933;46.398;-63.798;2023-01-30T12:40:44;101883.28;;;-4.40;85.03
66703;BME280;60933;46.398;-63.798;2023-01-30T12:46:30;101891.09;;;-4.36;84.88
66703;BME280;60933;46.398;-63.798;2023-01-30T12:52:28;101913.97;;;-4.33;85.02
66703;BME280;60933;46.398;-63.798;2023-01-30T13:03:33;101927.66;;;-4.27;84.27
66703;BME280;60933;46.398;-63.798;2023-01-30T13:14:28;101949.47;;;-4.13;83.54
66703;BME280;60933;46.398;-63.798;2023-01-30T13:20:19;101957.47;;;-4.05;82.46
66703;BME280;60933;46.398;-63.798;2023-01-30T13:23:11;101947.31;;;-4.07;82.39
66703;BME280;60933;46.398;-63.798;2023-01-30T13:26:05;101962.59;;;-4.04;81.94
66703;BME280;60933;46.398;-63.798;2023-01-30T13:28:43;101961.47;;;-4.09;81.83
66703;BME280;60933;46.398;-63.798;2023-01-30T13:31:17;101963.53;;;-4.02;81.65
66703;BME280;60933;46.398;-63.798;2023-01-30T13:33:49;101951.13;;;-3.99;81.10
66703;BME280;60933;46.398;-63.798;2023-01-30T13:36:21;101953.63;;;-3.99;80.70
66703;BME280;60933;46.398;-63.798;2023-01-30T13:41:24;101953.81;;;-3.79;80.64
66703;BME280;60933;46.398;-63.798;2023-01-30T13:43:52;101949.81;;;-3.75;80.50
66703;BME280;60933;46.398;-63.798;2023-01-30T13:46:26;101956.91;;;-3.68;79.91
66703;BME280;60933;46.398;-63.798;2023-01-30T13:49:28;101968.38;;;-3.58;80.15
66703;BME280;60933;46.398;-63.798;2023-01-30T13:51:55;101970.88;;;-3.58;78.75
66703;BME280;60933;46.398;-63.798;2023-01-30T13:54:40;101971.06;;;-3.55;79.30
66703;BME280;60933;46.398;-63.798;2023-01-30T13:57:22;101973.97;;;-3.47;79.22
66703;BME280;60933;46.398;-63.798;2023-01-30T14:08:29;101981.78;;;-3.43;77.62
66703;BME280;60933;46.398;-63.798;2023-01-30T14:10:59;101987.81;;;-3.41;77.38
66703;BME280;60933;46.398;-63.798;2023-01-30T14:13:26;101988.81;;;-3.37;77.07
66703;BME280;60933;46.398;-63.798;2023-01-30T14:15:56;101979.75;;;-3.34;76.85
66703;BME280;60933;46.398;-63.798;2023-01-30T14:18:26;101980.16;;;-3.26;76.89
66703;BME280;60933;46.398;-63.798;2023-01-30T14:23:59;101970.91;;;-3.09;75.33
66703;BME280;60933;46.398;-63.798;2023-01-30T14:40:00;101957.50;;;-3.08;74.48
66703;BME280;60933;46.398;-63.798;2023-01-30T14:42:28;101959.13;;;-2.92;75.04
66703;BME280;60933;46.398;-63.798;2023-01-30T14:45:13;101960.56;;;-2.80;74.27
66703;BME280;60933;46.398;-63.798;2023-01-30T14:47:40;101960.59;;;-2.62;73.96
66703;BME280;60933;46.398;-63.798;2023-01-30T14:50:21;101959.31;;;-2.54;73.48
66703;BME280;60933;46.398;-63.798;2023-01-30T14:52:48;101969.28;;;-2.39;72.84
66703;BME280;60933;46.398;-63.798;2023-01-30T14:55:24;101976.22;;;-2.35;72.38
66703;BME280;60933;46.398;-63.798;2023-01-30T14:58:02;101960.16;;;-2.35;72.58
66703;BME280;60933;46.398;-63.798;2023-01-30T15:00:31;101965.16;;;-2.19;72.29
66703;BME280;60933;46.398;-63.798;2023-01-30T15:03:07;101980.00;;;-2.09;71.77